GMAG

Goulimime

Goulimime, Morocco
METAR GMAG 271800Z 36018KT 9999 SCT016 19/09 Q1015 NOSIG
Observed Flight Rules
May-27 @ 18:00 UTC (7 hours ago) Visual Flight Rules
Wind Visibility Clouds
360° at 18 knots 10,000+ meters
  • Scattered at 1,600' AGL
Temperatures Readings
Current 19°C / 66°F
Dewpoint 9°C / 48°F
Humidity 52%
Altimeter 29.97" Hg
Pressure 1015 hPa
Elevation 333
METAR GMAG 271800Z 36018KT 9999 SCT016 19/09 Q1015 NOSIG
Observed Flight Rules
May-27 @ 18:00 UTC
(7 hours ago)
VFR
Wind Visibility
360° at 18 knots 10,000+ meters
Clouds
  • Scattered at 1,600' AGL
Temperature Dewpoint
19°C / 66°F 9°C / 48°F
Humidity Altimeter Pressure
52% 29.97" Hg 1015 hPa